createdAt,value
2022-09-24T00:01:51.826Z,3.83
2022-09-24T00:04:20.207Z,3.75
2022-09-24T00:06:50.149Z,5.18
2022-09-24T00:09:22.124Z,4.50
2022-09-24T00:11:51.616Z,3.83
2022-09-24T00:14:20.341Z,6.45
2022-09-24T00:16:48.338Z,4.22
2022-09-24T00:19:16.507Z,5.55
2022-09-24T00:21:45.147Z,3.80
2022-09-24T00:24:38.158Z,6.57
2022-09-24T00:27:06.373Z,3.33
2022-09-24T00:29:35.800Z,5.35
2022-09-24T00:32:05.569Z,3.58
2022-09-24T00:34:33.820Z,3.83
2022-09-24T00:37:02.078Z,3.08
2022-09-24T00:39:31.483Z,4.03
2022-09-24T00:41:59.548Z,3.38
2022-09-24T00:44:54.666Z,3.13
2022-09-24T00:47:35.910Z,5.40
2022-09-24T00:50:14.331Z,3.80
2022-09-24T00:52:46.393Z,4.07
2022-09-24T00:55:16.578Z,4.22
2022-09-24T00:57:46.105Z,4.82
2022-09-24T01:00:15.710Z,4.80
2022-09-24T01:02:47.893Z,4.90
2022-09-24T01:05:15.877Z,2.75
2022-09-24T01:07:43.919Z,4.60
2022-09-24T01:10:12.278Z,3.67
2022-09-24T01:12:48.238Z,4.93
2022-09-24T01:15:24.106Z,3.38
2022-09-24T01:18:03.090Z,4.03
2022-09-24T01:21:00.235Z,3.42
2022-09-24T01:23:49.004Z,3.28
2022-09-24T01:26:41.472Z,4.15
2022-09-24T01:29:32.370Z,4.18
2022-09-24T01:32:06.297Z,5.55
2022-09-24T01:34:40.231Z,3.33
2022-09-24T01:37:08.927Z,6.43
2022-09-24T01:39:40.066Z,3.08
2022-09-24T01:42:11.336Z,2.63
2022-09-24T01:44:44.678Z,3.38
2022-09-24T01:47:19.526Z,2.67
2022-09-24T01:49:48.047Z,3.47
2022-09-24T01:52:20.737Z,2.30
2022-09-24T01:54:52.540Z,3.83
2022-09-24T01:57:25.168Z,4.07
2022-09-24T01:59:58.406Z,5.47
2022-09-24T02:02:31.257Z,5.38
2022-09-24T02:05:03.981Z,3.42
2022-09-24T02:07:36.338Z,4.22
2022-09-24T02:10:04.594Z,3.17
2022-09-24T02:12:37.966Z,4.53
2022-09-24T02:15:12.882Z,4.22
2022-09-24T02:17:44.678Z,5.03
2022-09-24T02:20:16.362Z,3.22
2022-09-24T02:22:46.736Z,3.42
2022-09-24T02:25:19.569Z,4.03
2022-09-24T02:27:48.237Z,3.70
2022-09-24T02:30:17.954Z,3.35
2022-09-24T02:32:46.399Z,4.45
2022-09-24T02:35:13.643Z,3.45
2022-09-24T02:37:43.303Z,5.25
2022-09-24T02:40:14.079Z,5.00
2022-09-24T02:42:43.796Z,5.03
2022-09-24T02:45:14.546Z,2.90
2022-09-24T02:47:44.183Z,4.15
2022-09-24T02:50:12.175Z,4.05
2022-09-24T02:52:40.571Z,4.43
2022-09-24T02:55:09.243Z,5.20
2022-09-24T02:57:37.806Z,6.13
2022-09-24T03:00:06.681Z,4.28
2022-09-24T03:02:35.311Z,3.42
2022-09-24T03:05:05.134Z,6.93
2022-09-24T03:07:33.261Z,3.97
2022-09-24T03:10:01.327Z,4.88
2022-09-24T03:12:29.849Z,4.25
2022-09-24T03:14:57.835Z,4.90
2022-09-24T03:17:26.168Z,3.53
2022-09-24T03:19:54.271Z,3.53
2022-09-24T03:22:23.994Z,3.55
2022-09-24T03:24:52.327Z,2.90
2022-09-24T03:27:20.334Z,3.00
2022-09-24T03:30:05.905Z,4.63
2022-09-24T03:32:34.530Z,6.18
2022-09-24T03:35:03.034Z,3.90
2022-09-24T03:37:33.453Z,3.70
2022-09-24T03:40:01.560Z,3.65
2022-09-24T03:42:29.639Z,4.32
2022-09-24T03:44:58.906Z,4.72
2022-09-24T03:47:27.086Z,3.70
2022-09-24T03:49:55.177Z,4.70
2022-09-24T03:52:23.233Z,5.93
2022-09-24T03:54:52.788Z,8.88
2022-09-24T03:57:20.778Z,3.45
2022-09-24T03:59:49.324Z,4.22
2022-09-24T04:02:17.697Z,4.38
2022-09-24T04:04:45.769Z,4.53
2022-09-24T04:07:13.779Z,3.83
2022-09-24T04:09:42.395Z,3.35
2022-09-24T04:12:12.188Z,5.18
2022-09-24T04:14:40.405Z,6.72
2022-09-24T04:17:08.820Z,7.47
2022-09-24T04:19:37.304Z,6.03
2022-09-24T04:22:05.677Z,6.35
2022-09-24T04:24:33.963Z,4.72
2022-09-24T04:27:02.272Z,4.15
2022-09-24T04:29:31.643Z,4.60
2022-09-24T04:31:59.635Z,5.00
2022-09-24T04:34:27.846Z,3.78
2022-09-24T04:36:55.844Z,6.47
2022-09-24T04:39:26.802Z,5.97
2022-09-24T04:41:54.897Z,6.15
2022-09-24T04:44:23.853Z,6.03
2022-09-24T04:46:53.267Z,5.47
2022-09-24T04:49:21.548Z,7.60
2022-09-24T04:51:49.567Z,4.03
2022-09-24T04:54:18.219Z,4.35
2022-09-24T04:56:46.219Z,5.22
2022-09-24T04:59:14.491Z,5.43
2022-09-24T05:01:42.634Z,5.25
2022-09-24T05:04:12.057Z,5.60
2022-09-24T05:06:40.039Z,5.97
2022-09-24T05:09:12.449Z,5.90
2022-09-24T05:11:40.834Z,4.68
2022-09-24T05:14:08.878Z,6.47
2022-09-24T05:16:36.873Z,6.15
2022-09-24T05:19:05.979Z,5.70
2022-09-24T05:21:35.396Z,5.75
2022-09-24T05:24:03.788Z,5.47
2022-09-24T05:26:49.374Z,5.25
2022-09-24T05:29:17.697Z,4.65
2022-09-24T05:31:46.047Z,5.95
2022-09-24T05:34:15.026Z,7.75
2022-09-24T05:36:44.797Z,8.23
2022-09-24T05:39:14.595Z,5.68
2022-09-24T05:41:44.134Z,6.07
2022-09-24T05:44:12.226Z,7.28
2022-09-24T05:46:40.270Z,7.90
2022-09-24T05:49:08.300Z,6.72
2022-09-24T05:51:36.269Z,5.07
2022-09-24T05:54:05.951Z,5.90
2022-09-24T05:56:33.972Z,5.55
2022-09-24T05:59:02.489Z,5.80
2022-09-24T06:01:31.131Z,6.05
2022-09-24T06:03:59.856Z,6.20
2022-09-24T06:06:29.770Z,5.32
2022-09-24T06:08:57.941Z,7.57
2022-09-24T06:11:28.191Z,5.90
2022-09-24T06:13:56.163Z,6.88
2022-09-24T06:16:24.307Z,5.95
2022-09-24T06:18:52.387Z,4.40
2022-09-24T06:21:20.377Z,5.35
2022-09-24T06:23:49.886Z,7.20
2022-09-24T06:26:18.914Z,6.88
2022-09-24T06:28:48.304Z,5.63
2022-09-24T06:31:16.446Z,6.38
2022-09-24T06:33:44.497Z,5.72
2022-09-24T06:36:12.816Z,6.25
2022-09-24T06:38:41.298Z,6.10
2022-09-24T06:41:10.167Z,7.82
2022-09-24T06:43:38.647Z,7.55
2022-09-24T06:46:08.097Z,5.85
2022-09-24T06:48:38.524Z,7.70
2022-09-24T06:51:07.735Z,4.80
2022-09-24T06:53:35.776Z,5.80
2022-09-24T06:56:04.553Z,6.55
2022-09-24T06:58:33.710Z,6.05
2022-09-24T07:01:03.508Z,7.65
2022-09-24T07:03:34.521Z,5.07
2022-09-24T07:06:04.793Z,5.38
2022-09-24T07:08:33.021Z,5.75
2022-09-24T07:11:02.231Z,7.18
2022-09-24T07:13:30.824Z,5.82
2022-09-24T07:15:58.921Z,6.22
2022-09-24T07:18:27.336Z,8.10
2022-09-24T07:20:58.189Z,6.93
2022-09-24T07:23:27.922Z,5.97
2022-09-24T07:25:58.232Z,8.45
2022-09-24T07:28:26.896Z,6.72
2022-09-24T07:30:59.437Z,6.93
2022-09-24T07:33:28.162Z,7.03
2022-09-24T07:35:57.521Z,7.38
2022-09-24T07:38:25.644Z,8.30
2022-09-24T07:40:54.287Z,8.25
2022-09-24T07:43:22.817Z,8.15
2022-09-24T07:45:51.235Z,7.85
2022-09-24T07:48:19.241Z,6.85
2022-09-24T07:50:47.258Z,8.13
2022-09-24T07:53:17.017Z,7.82
2022-09-24T07:55:45.512Z,8.93
2022-09-24T07:58:14.904Z,5.55
2022-09-24T08:00:43.222Z,7.57
2022-09-24T08:03:11.766Z,8.60
2022-09-24T08:05:45.431Z,7.13
2022-09-24T08:08:14.203Z,5.75
2022-09-24T08:10:43.984Z,7.13
2022-09-24T08:13:12.173Z,5.97
2022-09-24T08:15:40.575Z,6.57
2022-09-24T08:18:09.042Z,7.78
2022-09-24T08:20:38.321Z,9.25
2022-09-24T08:23:09.990Z,7.30
2022-09-24T08:25:38.126Z,7.10
2022-09-24T08:28:09.193Z,6.00
2022-09-24T08:30:37.493Z,7.45
2022-09-24T08:33:07.302Z,5.53
2022-09-24T08:35:35.928Z,6.78
2022-09-24T08:38:04.549Z,4.82
2022-09-24T08:40:37.343Z,6.18
2022-09-24T08:43:17.875Z,5.75
2022-09-24T08:46:08.273Z,6.15
2022-09-24T08:48:39.858Z,4.97
2022-09-24T08:51:14.526Z,4.25
2022-09-24T08:53:49.454Z,5.95
2022-09-24T08:56:22.451Z,5.75
2022-09-24T08:58:55.795Z,5.82
2022-09-24T09:01:33.037Z,5.97
2022-09-24T09:04:06.222Z,7.45
2022-09-24T09:06:56.218Z,4.78
2022-09-24T09:09:27.118Z,6.93
2022-09-24T09:12:00.958Z,4.75
2022-09-24T09:14:42.230Z,4.35
2022-09-24T09:17:21.787Z,3.75
2022-09-24T09:19:56.695Z,3.60
2022-09-24T09:22:29.122Z,4.65
2022-09-24T09:25:04.283Z,6.85
2022-09-24T09:27:32.863Z,3.72
2022-09-24T09:30:09.169Z,3.05
2022-09-24T09:32:58.238Z,5.22
2022-09-24T09:35:34.260Z,7.00
2022-09-24T09:38:10.920Z,4.65
2022-09-24T09:40:47.242Z,4.35
2022-09-24T09:43:15.919Z,3.42
2022-09-24T09:45:53.647Z,5.13
2022-09-24T09:48:25.299Z,3.42
2022-09-24T09:50:56.803Z,3.40
2022-09-24T09:53:28.041Z,3.67
2022-09-24T09:55:57.676Z,4.25
2022-09-24T09:58:27.214Z,5.53
2022-09-24T10:01:06.214Z,3.97
2022-09-24T10:03:39.283Z,4.90
2022-09-24T10:06:08.802Z,4.50
2022-09-24T10:08:37.085Z,4.63
2022-09-24T10:11:07.663Z,5.35
2022-09-24T10:13:37.070Z,5.22
2022-09-24T10:16:10.849Z,6.63
2022-09-24T10:18:43.082Z,4.45
2022-09-24T10:21:13.166Z,3.70
2022-09-24T10:23:43.238Z,3.58
2022-09-24T10:26:12.202Z,4.65
2022-09-24T10:29:03.373Z,3.92
2022-09-24T10:31:36.193Z,4.93
2022-09-24T10:34:06.461Z,4.43
2022-09-24T10:36:34.542Z,4.28
2022-09-24T10:39:05.014Z,5.82
2022-09-24T10:41:35.965Z,4.15
2022-09-24T10:44:07.542Z,5.63
2022-09-24T10:46:51.706Z,4.82
2022-09-24T10:49:33.609Z,5.88
2022-09-24T10:52:09.177Z,5.93
2022-09-24T10:54:50.221Z,4.28
2022-09-24T10:57:30.212Z,6.78
2022-09-24T11:00:08.479Z,5.07
2022-09-24T11:03:32.721Z,4.55
2022-09-24T11:06:03.602Z,4.43
2022-09-24T11:08:52.202Z,4.32
2022-09-24T11:11:31.378Z,6.35
2022-09-24T11:14:12.781Z,3.90
2022-09-24T11:17:11.270Z,5.57
2022-09-24T11:20:05.391Z,4.40
2022-09-24T11:22:44.667Z,5.28
2022-09-24T11:25:31.090Z,4.75
2022-09-24T11:28:11.437Z,4.90
2022-09-24T11:30:48.221Z,5.03
2022-09-24T11:33:32.067Z,5.93
2022-09-24T11:36:24.192Z,3.85
2022-09-24T11:39:05.600Z,5.72
2022-09-24T11:41:45.941Z,4.45
2022-09-24T11:44:30.650Z,7.53
2022-09-24T11:47:13.751Z,4.13
2022-09-24T11:49:54.140Z,4.32
2022-09-24T11:52:33.172Z,4.65
2022-09-24T11:55:07.087Z,4.43
2022-09-24T11:57:40.686Z,5.05
2022-09-24T12:00:16.905Z,5.72
2022-09-24T12:02:50.289Z,3.15
2022-09-24T12:05:25.027Z,10.70
2022-09-24T12:07:58.139Z,4.55
2022-09-24T12:10:32.876Z,5.28
2022-09-24T12:13:12.489Z,4.50
2022-09-24T12:15:48.297Z,5.13
2022-09-24T12:18:21.120Z,5.90
2022-09-24T12:20:53.154Z,6.63
2022-09-24T12:23:28.151Z,4.88
2022-09-24T12:25:58.555Z,8.57
2022-09-24T12:28:51.794Z,5.45
2022-09-24T12:31:45.785Z,6.00
2022-09-24T12:34:20.094Z,7.28
2022-09-24T12:36:58.830Z,5.65
2022-09-24T12:39:32.461Z,4.60
2022-09-24T12:42:04.255Z,5.07
2022-09-24T12:44:40.883Z,5.53
2022-09-24T12:47:18.427Z,5.53
2022-09-24T12:49:51.864Z,6.57
2022-09-24T12:52:25.095Z,5.78
2022-09-24T12:55:01.092Z,5.38
2022-09-24T12:57:34.423Z,5.40
2022-09-24T13:00:05.158Z,5.32
2022-09-24T13:02:46.227Z,4.38
2022-09-24T13:05:20.008Z,6.35
2022-09-24T13:07:58.541Z,4.88
2022-09-24T13:10:30.283Z,5.38
2022-09-24T13:13:00.010Z,4.53
2022-09-24T13:15:33.889Z,6.05
2022-09-24T13:18:09.058Z,4.65
2022-09-24T13:20:39.909Z,4.10
2022-09-24T13:23:32.537Z,4.30
2022-09-24T13:26:04.910Z,4.97
2022-09-24T13:28:38.742Z,4.63
2022-09-24T13:31:20.565Z,7.13
2022-09-24T13:33:52.512Z,5.05
2022-09-24T13:36:27.311Z,4.82
2022-09-24T13:38:59.170Z,6.88
2022-09-24T13:41:38.975Z,4.70
2022-09-24T13:44:15.175Z,6.30
2022-09-24T13:46:47.139Z,6.03
2022-09-24T13:49:19.056Z,5.38
2022-09-24T13:51:58.334Z,3.97
2022-09-24T13:54:34.489Z,5.25
2022-09-24T13:57:15.323Z,5.28
2022-09-24T13:59:43.347Z,4.68
2022-09-24T14:02:29.870Z,5.90
2022-09-24T14:04:59.876Z,4.32
2022-09-24T14:07:28.943Z,5.60
2022-09-24T14:10:05.527Z,8.18
2022-09-24T14:12:35.123Z,6.18
2022-09-24T14:15:11.557Z,6.55
2022-09-24T14:17:39.550Z,5.40
2022-09-24T14:20:11.119Z,7.80
2022-09-24T14:22:42.811Z,5.72
2022-09-24T14:25:16.958Z,9.05
2022-09-24T14:27:49.704Z,6.10
2022-09-24T14:30:21.765Z,5.25
2022-09-24T14:32:54.755Z,6.32
2022-09-24T14:35:30.143Z,4.75
2022-09-24T14:38:04.390Z,6.47
2022-09-24T14:40:41.847Z,5.70
2022-09-24T14:43:18.769Z,4.85
2022-09-24T14:45:48.049Z,5.57
2022-09-24T14:48:26.687Z,5.30
2022-09-24T14:50:55.399Z,4.97
2022-09-24T14:53:26.943Z,5.88
2022-09-24T14:55:55.655Z,4.72
2022-09-24T14:58:27.033Z,5.30
2022-09-24T15:00:58.467Z,5.85
2022-09-24T15:03:33.313Z,5.55
2022-09-24T15:06:14.656Z,4.57
2022-09-24T15:08:43.312Z,4.55
2022-09-24T15:11:18.893Z,3.97
2022-09-24T15:13:59.673Z,4.20
2022-09-24T15:16:33.876Z,4.20
2022-09-24T15:19:20.108Z,5.22
2022-09-24T15:21:49.934Z,5.05
2022-09-24T15:24:19.722Z,3.90
2022-09-24T15:26:50.193Z,6.15
2022-09-24T15:29:24.604Z,4.75
2022-09-24T15:31:53.497Z,5.25
2022-09-24T15:34:21.552Z,4.10
2022-09-24T15:36:50.539Z,7.35
2022-09-24T15:39:19.685Z,5.75
2022-09-24T15:41:47.991Z,5.10
2022-09-24T15:44:23.361Z,4.75
2022-09-24T15:46:52.513Z,6.88
2022-09-24T15:49:22.402Z,6.68
2022-09-24T15:51:51.968Z,7.03
2022-09-24T15:54:20.688Z,4.28
2022-09-24T15:56:52.383Z,7.60
2022-09-24T15:59:23.462Z,5.95
2022-09-24T16:01:54.240Z,8.10
2022-09-24T16:04:22.279Z,6.45
2022-09-24T16:06:51.026Z,8.70
2022-09-24T16:09:19.270Z,7.05
2022-09-24T16:11:48.358Z,6.18
2022-09-24T16:14:16.666Z,7.28
2022-09-24T16:16:46.096Z,6.95
2022-09-24T16:19:15.080Z,8.75
2022-09-24T16:21:43.057Z,7.10
2022-09-24T16:24:11.065Z,4.68
2022-09-24T16:26:39.185Z,7.38
2022-09-24T16:29:10.355Z,7.07
2022-09-24T16:31:38.746Z,7.60
2022-09-24T16:34:08.426Z,7.13
2022-09-24T16:36:36.412Z,6.70
2022-09-24T16:39:05.355Z,6.57
2022-09-24T16:41:34.637Z,7.78
2022-09-24T16:44:03.022Z,4.70
2022-09-24T16:46:31.441Z,6.38
2022-09-24T16:48:59.529Z,8.38
2022-09-24T16:51:29.008Z,4.65
2022-09-24T16:53:57.406Z,6.38
2022-09-24T16:56:25.987Z,5.60
2022-09-24T16:58:54.451Z,5.85
2022-09-24T17:01:23.273Z,4.18
2022-09-24T17:03:56.135Z,5.30
2022-09-24T17:06:26.275Z,6.90
2022-09-24T17:09:13.970Z,7.38
2022-09-24T17:11:42.538Z,5.28
2022-09-24T17:14:12.423Z,11.77
2022-09-24T17:16:41.287Z,10.60
2022-09-24T17:19:09.809Z,11.27
2022-09-24T17:21:39.897Z,10.95
2022-09-24T17:24:10.106Z,13.20
2022-09-24T17:26:39.661Z,11.45
2022-09-24T17:29:07.870Z,11.68
2022-09-24T17:31:35.980Z,16.33
2022-09-24T17:34:06.202Z,16.98
2022-09-24T17:36:35.410Z,19.15
2022-09-24T17:39:03.865Z,14.85
2022-09-24T17:41:33.310Z,14.02
2022-09-24T17:44:01.899Z,9.23
2022-09-24T17:46:31.705Z,9.50
2022-09-24T17:49:01.180Z,8.27
2022-09-24T17:51:32.652Z,7.85
2022-09-24T17:54:03.264Z,9.88
2022-09-24T17:56:33.641Z,7.43
2022-09-24T17:59:01.893Z,9.60
2022-09-24T18:01:33.561Z,9.25
2022-09-24T18:04:01.891Z,18.35
2022-09-24T18:06:33.085Z,21.13
2022-09-24T18:09:02.303Z,17.38
2022-09-24T18:11:33.931Z,19.15
2022-09-24T18:14:03.348Z,14.98
2022-09-24T18:16:33.204Z,27.58
2022-09-24T18:19:03.722Z,37.30
2022-09-24T18:21:32.583Z,31.80
2022-09-24T18:24:01.678Z,19.23
2022-09-24T18:26:34.287Z,18.23
2022-09-24T18:29:04.195Z,20.35
2022-09-24T18:31:33.349Z,95.63
2022-09-24T18:34:05.789Z,24.30
2022-09-24T18:36:35.518Z,18.80
2022-09-24T18:39:04.582Z,16.55
2022-09-24T18:41:34.801Z,13.27
2022-09-24T18:44:03.765Z,11.48
2022-09-24T18:46:33.600Z,10.30
2022-09-24T18:49:02.466Z,10.30
2022-09-24T18:51:33.487Z,14.13
2022-09-24T18:54:03.659Z,14.38
2022-09-24T18:56:33.465Z,16.80
2022-09-24T18:59:07.180Z,10.77
2022-09-24T19:01:38.247Z,10.77
2022-09-24T19:04:07.938Z,10.65
2022-09-24T19:06:36.577Z,25.48
2022-09-24T19:09:05.882Z,16.88
2022-09-24T19:11:35.389Z,17.13
2022-09-24T19:14:03.761Z,14.98
2022-09-24T19:16:32.504Z,10.27
2022-09-24T19:19:02.415Z,12.73
2022-09-24T19:21:30.859Z,9.55
2022-09-24T19:24:00.615Z,9.80
2022-09-24T19:26:31.088Z,15.20
2022-09-24T19:29:00.891Z,11.35
2022-09-24T19:31:31.385Z,9.77
2022-09-24T19:34:03.355Z,11.00
2022-09-24T19:36:32.861Z,9.50
2022-09-24T19:39:01.501Z,8.82
2022-09-24T19:41:29.690Z,12.35
2022-09-24T19:44:04.541Z,12.40
2022-09-24T19:46:35.767Z,17.02
2022-09-24T19:49:03.843Z,12.95
2022-09-24T19:51:33.624Z,12.45
2022-09-24T19:54:03.532Z,12.73
2022-09-24T19:56:32.176Z,11.70
2022-09-24T19:59:02.539Z,10.52
2022-09-24T20:01:32.603Z,16.33
2022-09-24T20:04:04.102Z,12.10
2022-09-24T20:06:33.973Z,10.40
2022-09-24T20:09:02.767Z,11.20
2022-09-24T20:11:32.732Z,8.60
2022-09-24T20:14:03.305Z,9.23
2022-09-24T20:16:32.597Z,10.80
2022-09-24T20:19:01.642Z,9.38
2022-09-24T20:21:35.369Z,9.02
2022-09-24T20:24:04.705Z,9.45
2022-09-24T20:26:52.189Z,9.18
2022-09-24T20:29:23.221Z,9.45
2022-09-24T20:31:53.418Z,8.20
2022-09-24T20:34:23.479Z,8.00
2022-09-24T20:36:51.994Z,8.55
2022-09-24T20:39:20.283Z,7.28
2022-09-24T20:41:49.423Z,8.27
2022-09-24T20:44:19.610Z,9.80
2022-09-24T20:46:49.027Z,8.27
2022-09-24T20:49:22.996Z,8.60
2022-09-24T20:51:56.503Z,11.32
2022-09-24T20:54:26.489Z,9.93
2022-09-24T20:56:54.998Z,10.30
2022-09-24T20:59:23.528Z,10.10
2022-09-24T21:01:53.189Z,8.80
2022-09-24T21:04:22.766Z,9.05
2022-09-24T21:06:51.588Z,8.93
2022-09-24T21:09:19.621Z,10.90
2022-09-24T21:11:47.879Z,10.25
2022-09-24T21:14:16.254Z,11.27
2022-09-24T21:16:44.313Z,9.20
2022-09-24T21:19:15.820Z,9.60
2022-09-24T21:21:43.950Z,8.55
2022-09-24T21:24:14.035Z,7.47
2022-09-24T21:26:42.722Z,10.80
2022-09-24T21:29:14.253Z,9.00
2022-09-24T21:31:44.396Z,9.90
2022-09-24T21:34:15.786Z,10.18
2022-09-24T21:36:45.707Z,9.32
2022-09-24T21:39:16.600Z,8.70
2022-09-24T21:41:45.131Z,10.07
2022-09-24T21:44:15.691Z,9.18
2022-09-24T21:46:43.915Z,8.32
2022-09-24T21:49:14.069Z,10.18
2022-09-24T21:51:43.340Z,10.85
2022-09-24T21:54:16.259Z,10.48
2022-09-24T21:56:44.686Z,10.57
2022-09-24T21:59:26.609Z,8.95
2022-09-24T22:01:55.104Z,11.38
2022-09-24T22:04:24.849Z,10.90
2022-09-24T22:06:53.666Z,11.15
2022-09-24T22:09:22.710Z,10.80
2022-09-24T22:11:51.538Z,11.48
2022-09-24T22:14:19.977Z,11.93
2022-09-24T22:16:48.106Z,8.90
2022-09-24T22:19:16.575Z,10.73
2022-09-24T22:21:46.183Z,11.90
2022-09-24T22:24:14.336Z,12.02
2022-09-24T22:26:42.539Z,16.33
2022-09-24T22:29:10.912Z,14.45
2022-09-24T22:31:39.082Z,11.32
2022-09-24T22:34:24.971Z,11.88
2022-09-24T22:36:54.556Z,12.40
2022-09-24T22:39:22.980Z,12.80
2022-09-24T22:41:52.528Z,11.05
2022-09-24T22:44:20.569Z,12.45
2022-09-24T22:46:48.856Z,13.88
2022-09-24T22:49:16.990Z,12.13
2022-09-24T22:51:44.998Z,13.30
2022-09-24T22:54:14.357Z,13.77
2022-09-24T22:56:42.752Z,12.77
2022-09-24T22:59:10.768Z,13.82
2022-09-24T23:01:42.239Z,16.70
2022-09-24T23:04:15.055Z,12.25
2022-09-24T23:06:43.857Z,13.38
2022-09-24T23:09:13.926Z,14.07
2022-09-24T23:11:42.100Z,14.15
2022-09-24T23:14:13.587Z,9.93
2022-09-24T23:16:43.761Z,15.18
2022-09-24T23:19:15.063Z,15.85
2022-09-24T23:21:43.343Z,12.73
2022-09-24T23:24:16.989Z,14.63
2022-09-24T23:26:45.598Z,14.20
2022-09-24T23:29:14.861Z,13.07
2022-09-24T23:31:43.198Z,13.13
2022-09-24T23:34:14.181Z,13.77
2022-09-24T23:36:43.242Z,15.07
2022-09-24T23:39:11.394Z,14.15
2022-09-24T23:41:40.891Z,11.93
2022-09-24T23:44:09.004Z,11.40
2022-09-24T23:46:37.222Z,14.05
2022-09-24T23:49:05.951Z,13.93
2022-09-24T23:51:33.938Z,15.07
2022-09-24T23:54:02.140Z,16.17
2022-09-24T23:56:30.151Z,8.95
2022-09-24T23:58:59.788Z,13.85
